Data for 01/26/2008

Time Sea-Level Adjusted Pressure Absolute Pressure Temperature Relative Humidity Dew Point   
(mb) (inHg) (mb) (inHg) (C) (F) (%) (C) (F)
00:05 1016 30 845 24.95 -8.1 17.4 66 -13.4 7.8
00:10 1016 30 845 24.95 -7.9 17.8 65 -13.3 8.1
00:15 1016 30 845 24.95 -7.8 17.9 66 -13.2 8.3
00:20 1015 29.97 845 24.95 -7.7 18.2 64 -13.3 8
00:25 1015 29.97 845 24.95 -7.5 18.6 64 -13.1 8.5
00:30 1015 29.97 845 24.95 -7.4 18.7 64 -13.1 8.5
00:35 1015 29.97 845 24.95 -7.3 18.9 62 -13.3 8.1
00:40 1015 29.97 845 24.95 -6.9 19.5 61 -13.3 8
00:45 1016 30 845 24.95 -6.6 20.1 59 -13.3 8.1
00:50 1016 30 845 24.95 -6.6 20.1 59 -13.3 8.1
00:55 1016 30 845 24.95 -6.6 20.1 59 -13.3 8.1
01:00 1016 30 845 24.95 -6.9 19.6 60 -13.4 7.9
01:05 1016 30 845 24.95 -7.1 19.1 60 -13.7 7.3
01:10 1016 30 845 24.95 -6.7 20 57 -13.8 7.1
01:15 1016 30 845 24.95 -6.9 19.5 56 -14.4 6.1
01:20 1016 30 845 24.95 -6.6 20.2 56 -14 6.8
01:25 1015 29.97 845 24.95 -5.7 21.7 52 -14.1 6.6
01:30 1015 29.97 845 24.95 -5.1 22.8 50 -13.9 7
01:35 1015 29.97 845 24.95 -5.8 21.6 50 -14.5 5.9
01:40 1015 29.97 845 24.95 -6 21.3 54 -13.9 7
01:45 1015 29.97 845 24.95 -6.3 20.7 52 -14.7 5.5
01:50 1015 29.97 845 24.95 -5.9 21.4 50 -14.8 5.3
01:55 1015 29.97 845 24.95 -5.5 22.2 45 -15.6 3.8
02:00 1015 29.97 845 24.95 -4.7 23.6 43 -15.4 4.2
02:05 1016 30 845 24.95 -5.3 22.5 48 -14.6 5.8
02:10 1016 30 845 24.95 -7.1 19.2 59 -13.9 6.9
02:15 1016 30 845 24.95 -7.7 18.2 59 -14.4 6
02:20 1016 30 845 24.95 -7.4 18.7 55 -14.8 5.3
02:25 1016 30 845 24.95 -6.8 19.7 52 -15.1 4.9
02:30 1016 30 845 24.95 -6.2 20.8 53 -14.4 6.1
02:35 1016 30 845 24.95 -6.4 20.5 54 -14.3 6.3
02:40 1016 30 845 24.95 -5.9 21.4 47 -15.4 4.3
02:45 1016 30 845 24.95 -4.6 23.7 43 -15.4 4.3
02:50 1016 30 845 24.95 -4.2 24.5 44 -14.7 5.6
02:55 1016 30 845 24.95 -5.6 22 51 -14.2 6.4
03:00 1016 30 845 24.95 -6.5 20.2 51 -15.1 4.8
03:05 1016 30 845 24.95 -6.4 20.6 51 -14.9 5.2
03:10 1016 30 845 24.95 -7.9 17.9 58 -14.8 5.3
03:15 1016 30 845 24.95 -7.6 18.3 52 -15.8 3.6
03:20 1016 30 845 24.95 -7.2 19.1 55 -14.7 5.6
03:25 1016 30 845 24.95 -7.6 18.4 56 -14.9 5.2
03:30 1016 30 845 24.95 -6.2 20.9 49 -15.2 4.7
03:35 1016 30 845 24.95 -5.2 22.6 47 -14.8 5.4
03:40 1016 30 845 24.95 -5 23 47 -14.6 5.7
03:45 1016 30 845 24.95 -5.3 22.5 49 -14.5 5.9
03:50 1016 30 845 24.95 -5.6 22 47 -15.2 4.7
03:55 1016 30 845 24.95 -5.3 22.4 45 -15.5 4.1
04:00 1016 30 845 24.95 -4.4 24 41 -15.8 3.6
04:05 1016 30 845 24.95 -3.7 25.4 38 -16.1 3.1
04:10 1016 30 845 24.95 -2.4 27.7 34 -16.3 2.6
04:15 1016 30 845 24.95 -1.3 29.6 33 -15.6 3.9
04:20 1016 30 845 24.95 -1 30.1 32 -15.8 3.6
04:25 1016 30 845 24.95 -1 30.3 33 -15.5 4.2
04:30 1016 30 846 24.98 -1.1 30 33 -15.3 4.4
04:35 1016 30 846 24.98 -1.4 29.5 34 -15.2 4.6
04:40 1016 30 846 24.98 -1.6 29.1 34 -15.5 4.2
04:45 1016 30 846 24.98 -1.6 29.1 34 -15.4 4.3
04:50 1016 30 846 24.98 -1.4 29.4 34 -15.5 4.1
04:55 1016 30 846 24.98 -1.6 29.1 35 -15.2 4.7
05:00 1016 30 846 24.98 -1.8 28.7 36 -15.2 4.7
05:05 1016 30 846 24.98 -2 28.4 36 -15.1 4.9
05:10 1016 30 846 24.98 -2.8 27.1 38 -15.1 4.8
05:15 1017 30.03 846 24.98 -4.9 23.1 46 -14.8 5.3
05:20 1016 30 846 24.98 -5.9 21.3 47 -15.5 4.1
05:25 1016 30 846 24.98 -7.4 18.8 52 -15.7 3.8
05:30 1016 30 846 24.98 -7.2 19 52 -15.5 4.1
05:35 1016 30 846 24.98 -6.9 19.7 52 -15.2 4.6
05:40 1016 30 846 24.98 -6.7 19.9 54 -14.6 5.7
05:45 1016 30 846 24.98 -6.9 19.6 52 -15.1 4.8
05:50 1016 30 846 24.98 -6.5 20.4 58 -13.4 7.9
05:55 1016 30 846 24.98 -6 21.2 50 -14.8 5.4
06:00 1016 30 845 24.95 -6 21.3 52 -14.3 6.3
06:05 1016 30 845 24.95 -5.8 21.6 48 -15 4.9
06:10 1016 30 845 24.95 -5.9 21.4 52 -14.2 6.5
06:15 1016 30 846 24.98 -5.4 22.3 47 -15.1 4.8
06:20 1016 30 845 24.95 -4.9 23.2 46 -14.8 5.3
06:25 1016 30 846 24.98 -5.3 22.4 48 -14.7 5.5
06:30 1016 30 845 24.95 -6.7 19.9 55 -14.3 6.2
06:35 1016 30 845 24.95 -7.4 18.7 58 -14.3 6.3
06:40 1016 30 846 24.98 -8.2 17.2 62 -14.3 6.2
06:45 1016 30 845 24.95 -8.8 16.2 63 -14.6 5.7
06:50 1016 30 845 24.95 -8.5 16.6 59 -15.1 4.8
06:55 1016 30 845 24.95 -7.9 17.7 56 -15.2 4.7
07:00 1016 30 845 24.95 -6.4 20.5 52 -14.7 5.5
07:05 1016 30 845 24.95 -4.8 23.3 48 -14.1 6.6
07:10 1016 30 845 24.95 -4.1 24.7 47 -13.8 7.1
07:15 1016 30 845 24.95 -4.1 24.6 48 -13.7 7.4
07:20 1016 30 845 24.95 -4 24.8 47 -13.8 7.2
07:25 1016 30 845 24.95 -4 24.8 49 -13.3 8
07:30 1016 30 845 24.95 -4.3 24.3 49 -13.4 7.8
07:35 1016 30 845 24.95 -4.2 24.4 49 -13.5 7.8
07:40 1016 30 845 24.95 -3.6 25.5 48 -13.2 8.2
07:45 1016 30 845 24.95 -3.1 26.4 45 -13.4 7.9
07:50 1016 30 845 24.95 -2.9 26.8 45 -13.1 8.4
07:55 1016 30 845 24.95 -2.6 27.3 44 -13.2 8.2
08:00 1016 30 845 24.95 -2.2 28.1 43 -13.3 8.1
08:05 1016 30 845 24.95 -2.3 27.9 43 -13.3 8
08:10 1016 30 845 24.95 -2.9 26.8 46 -13 8.6
08:15 1016 30 845 24.95 -3.1 26.3 45 -13.6 7.5
08:20 1016 30 845 24.95 -2.8 26.9 45 -13.2 8.2
08:25 1016 30 845 24.95 -2.9 26.8 46 -13 8.5
08:30 1016 30 845 24.95 -3 26.6 46 -13.2 8.2
08:35 1016 30 845 24.95 -2.9 26.8 46 -13 8.5
08:40 1016 30 845 24.95 -2.7 27.1 45 -13 8.6
08:45 1016 30 845 24.95 -2.7 27.2 45 -13 8.6
08:50 1016 30 845 24.95 -2.3 27.9 45 -12.7 9.2
08:55 1016 30 845 24.95 -2 28.4 44 -12.7 9.2
09:00 1016 30 845 24.95 -1.9 28.6 44 -12.6 9.4
09:05 1016 30 845 24.95 -1.8 28.8 43 -12.8 9
09:10 1016 30 845 24.95 -1.4 29.5 42 -12.7 9.2
09:15 1016 30 845 24.95 -1.4 29.5 43 -12.4 9.7
09:20 1016 30 845 24.95 -1.3 29.6 44 -12.2 10
09:25 1016 30 845 24.95 -1.3 29.7 44 -12 10.4
09:30 1016 30 845 24.95 -1.4 29.5 44 -12.2 10.1
09:35 1016 30 845 24.95 -1.2 29.8 44 -11.9 10.5
09:40 1016 30 845 24.95 -1.1 30 45 -11.6 11.1
09:45 1016 30 845 24.95 -0.7 30.8 44 -11.5 11.3
09:50 1016 30 845 24.95 -0.7 30.8 46 -11 12.3
09:55 1016 30 845 24.95 -0.4 31.3 44 -11.3 11.7
10:00 1016 30 845 24.95 -0.1 31.8 44 -10.9 12.3
10:05 1016 30 845 24.95 0.1 32.3 45 -10.6 13
10:10 1016 30 845 24.95 0.3 32.6 44 -10.5 13.1
10:15 1016 30 845 24.95 0.4 32.8 45 -10.3 13.4
10:20 1016 30 845 24.95 0.7 33.3 45 -9.8 14.3
10:25 1016 30 845 24.95 1.4 34.5 45 -9.2 15.4
10:30 1016 30 845 24.95 2.1 35.7 44 -8.9 16
10:35 1016 30 845 24.95 2.5 36.6 42 -9 15.8
10:40 1016 30 845 24.95 3.1 37.5 39 -9.5 14.9
10:45 1016 30 845 24.95 3.8 38.8 41 -8.4 16.9
10:50 1016 30 845 24.95 4.4 40 43 -7.2 19
10:55 1016 30 845 24.95 4.8 40.6 41 -7.3 18.8
11:00 1016 30 845 24.95 4.8 40.7 41 -7.3 18.8
11:05 1016 30 845 24.95 5 41 42 -7 19.4
11:10 1016 30 845 24.95 5.4 41.7 41 -7 19.4
11:15 1016 30 845 24.95 5.3 41.5 42 -6.8 19.8
11:20 1016 30 845 24.95 5.2 41.4 42 -6.8 19.8
11:25 1016 30 845 24.95 5 41.1 45 -6 21.2
11:30 1016 30 845 24.95 4.8 40.6 42 -6.9 19.5
11:35 1016 30 845 24.95 5 41 41 -7.3 18.8
11:40 1016 30 845 24.95 5.1 41.2 43 -6.4 20.5
11:45 1016 30 845 24.95 5.2 41.4 42 -6.7 19.9
11:50 1016 30 845 24.95 5.1 41.2 41 -7 19.3
11:55 1016 30 845 24.95 5.3 41.5 42 -6.6 20.1
12:00 1016 30 845 24.95 5.2 41.4 44 -6 21.2
12:05 1016 30 845 24.95 5.4 41.7 39 -7.4 18.7
12:10 1016 30 845 24.95 5.9 42.6 39 -7 19.4
12:15 1016 30 845 24.95 6.5 43.6 39 -6.4 20.5
12:20 1016 30 845 24.95 6.6 43.9 40 -6 21.3
12:25 1016 30 845 24.95 6.5 43.7 42 -5.5 22.1
12:30 1016 30 845 24.95 6.3 43.4 41 -5.9 21.4
12:35 1015 29.97 845 24.95 6.1 42.9 41 -6.3 20.6
12:40 1015 29.97 845 24.95 6 42.8 40 -6.6 20.1
12:45 1015 29.97 844 24.92 5.6 42.1 39 -7.3 18.9
12:50 1015 29.97 844 24.92 5.8 42.4 34 -8.8 16.2
12:55 1015 29.97 844 24.92 6 42.8 35 -8.3 17.1
13:00 1015 29.97 844 24.92 6.4 43.5 36 -7.6 18.3
13:05 1015 29.97 844 24.92 6.5 43.7 36 -7.6 18.3
13:10 1015 29.97 844 24.92 6.5 43.7 38 -6.8 19.7
13:15 1015 29.97 844 24.92 6.1 43 38 -7.2 19.1
13:20 1015 29.97 844 24.92 6.5 43.8 35 -7.8 18
13:25 1015 29.97 844 24.92 6.7 44 37 -6.8 19.7
13:30 1015 29.97 844 24.92 6.8 44.2 35 -7.6 18.3
13:35 1014 29.94 844 24.92 7 44.7 34 -7.7 18.2
13:40 1014 29.94 844 24.92 7.3 45.1 34 -7.5 18.4
13:45 1014 29.94 843 24.89 7.2 45 35 -7.4 18.6
13:50 1014 29.94 843 24.89 7.2 45 33 -8.1 17.5
13:55 1014 29.94 843 24.89 7.7 45.9 31 -8.5 16.7
14:00 1014 29.94 843 24.89 7.8 46 33 -7.6 18.3
14:05 1014 29.94 843 24.89 8.4 47.1 31 -7.8 17.9
14:10 1013 29.91 843 24.89 8.9 48 30 -7.7 18.1
14:15 1013 29.91 843 24.89 9.2 48.6 30 -7.5 18.5
14:20 1014 29.94 843 24.89 9.2 48.5 30 -7.4 18.7
14:25 1014 29.94 843 24.89 8.6 47.4 33 -7 19.4
14:30 1014 29.94 843 24.89 7.7 45.8 34 -7.3 18.9
14:35 1014 29.94 843 24.89 8.1 46.5 33 -7.4 18.6
14:40 1014 29.94 843 24.89 7.1 44.8 36 -7 19.4
14:45 1014 29.94 843 24.89 7 44.5 34 -7.8 17.9
14:50 1014 29.94 843 24.89 8 46.4 31 -8.1 17.4
14:55 1014 29.94 843 24.89 8.7 47.6 31 -7.6 18.2
15:00 1014 29.94 843 24.89 7.6 45.7 33 -7.6 18.4
15:05 1014 29.94 843 24.89 6.7 44 35 -7.8 18
15:10 1014 29.94 843 24.89 7.2 45 33 -7.9 17.8
15:15 1014 29.94 843 24.89 8.3 47 33 -7.1 19.2
15:20 1014 29.94 843 24.89 8.8 47.8 32 -7.1 19.3
15:25 1014 29.94 843 24.89 9.3 48.7 31 -6.9 19.5
15:30 1014 29.94 843 24.89 7.6 45.8 36 -6.6 20.2
15:35 1014 29.94 843 24.89 6.5 43.6 39 -6.5 20.4
15:40 1014 29.94 843 24.89 5.6 42 42 -6.2 20.8
15:45 1013 29.91 843 24.89 5.8 42.5 40 -6.8 19.8
15:50 1014 29.94 843 24.89 6.1 42.9 40 -6.6 20.1
15:55 1014 29.94 843 24.89 5.4 41.8 42 -6.4 20.4
16:00 1013 29.91 843 24.89 5.4 41.7 41 -6.8 19.8
16:05 1013 29.91 843 24.89 5.4 41.6 41 -6.8 19.7
16:10 1013 29.91 843 24.89 5.3 41.6 40 -7.3 18.9
16:15 1013 29.91 843 24.89 5.3 41.5 41 -6.9 19.6
16:20 1014 29.94 843 24.89 5.2 41.3 41 -7.1 19.2
16:25 1013 29.91 843 24.89 5 40.9 43 -6.7 20
16:30 1013 29.91 843 24.89 5.5 41.9 40 -7.2 19.1
16:35 1013 29.91 843 24.89 6.1 42.9 40 -6.6 20.1
16:40 1014 29.94 843 24.89 5.8 42.5 42 -6.1 21.1
16:45 1014 29.94 843 24.89 5.3 41.5 43 -6.1 20.9
16:50 1013 29.91 843 24.89 5.1 41.1 45 -5.9 21.4
16:55 1013 29.91 843 24.89 5 40.9 39 -7.7 18.1
17:00 1013 29.91 843 24.89 5.6 42.1 40 -6.9 19.6
17:05 1013 29.91 843 24.89 5.9 42.6 39 -7 19.4
17:10 1013 29.91 843 24.89 5.8 42.5 38 -7.3 18.8
17:15 1014 29.94 843 24.89 5.6 42 40 -7 19.4
17:20 1014 29.94 843 24.89 5.2 41.3 42 -6.6 20.1
17:25 1014 29.94 843 24.89 4.8 40.7 43 -6.7 20
17:30 1014 29.94 843 24.89 4.6 40.2 44 -6.6 20.1
17:35 1014 29.94 843 24.89 4.8 40.6 45 -6.3 20.6
17:40 1014 29.94 843 24.89 5 41.1 44 -6.3 20.6
17:45 1013 29.91 843 24.89 5.1 41.1 43 -6.6 20.1
17:50 1013 29.91 843 24.89 5 41 43 -6.4 20.5
17:55 1013 29.91 843 24.89 4.9 40.8 45 -6.1 21.1
18:00 1013 29.91 843 24.89 4.9 40.8 43 -6.7 20
18:05 1013 29.91 843 24.89 4.9 40.7 43 -6.6 20.1
18:10 1013 29.91 843 24.89 5.1 41.2 44 -6.2 20.8
18:15 1013 29.91 843 24.89 5.1 41.1 43 -6.5 20.4
18:20 1013 29.91 843 24.89 4.8 40.6 44 -6.6 20.1
18:25 1013 29.91 843 24.89 4.7 40.4 44 -6.4 20.5
18:30 1013 29.91 843 24.89 4.7 40.4 45 -6.4 20.5
18:35 1013 29.91 843 24.89 4.4 39.8 45 -6.7 20
18:40 1013 29.91 843 24.89 4.4 39.8 45 -6.5 20.3
18:45 1013 29.91 842 24.86 4.7 40.5 44 -6.4 20.5
18:50 1013 29.91 842 24.86 4.6 40.2 45 -6.3 20.7
18:55 1013 29.91 842 24.86 4 39.2 47 -6.3 20.7
19:00 1013 29.91 842 24.86 3.8 38.8 47 -6.6 20.1
19:05 1013 29.91 842 24.86 4 39.1 47 -6.4 20.4
19:10 1013 29.91 842 24.86 4 39.2 47 -6.4 20.5
19:15 1013 29.91 842 24.86 3.9 39 47 -6.5 20.2
19:20 1013 29.91 842 24.86 3.9 39 47 -6.4 20.4
19:25 1013 29.91 842 24.86 3.9 39.1 46 -6.6 20
19:30 1013 29.91 842 24.86 4 39.2 46 -6.6 20.1
19:35 1013 29.91 842 24.86 3.9 39.1 47 -6.3 20.6
19:40 1012 29.88 842 24.86 3.8 38.9 47 -6.4 20.4
19:45 1012 29.88 842 24.86 3.8 38.8 48 -6.3 20.6
19:50 1012 29.88 842 24.86 4 39.1 46 -6.7 19.9
19:55 1012 29.88 842 24.86 5 41 41 -7.3 18.9
20:00 1012 29.88 842 24.86 5.4 41.8 42 -6.5 20.2
20:05 1012 29.88 842 24.86 5.1 41.2 44 -6.2 20.8
20:10 1012 29.88 842 24.86 4.8 40.7 45 -6.3 20.7
20:15 1012 29.88 841 24.83 4.7 40.5 44 -6.5 20.3
20:20 1012 29.88 841 24.83 4.7 40.5 43 -6.7 19.9
20:25 1012 29.88 841 24.83 4.8 40.6 42 -6.9 19.5
20:30 1012 29.88 841 24.83 5 41 40 -7.5 18.5
20:35 1012 29.88 841 24.83 5.2 41.3 42 -6.7 19.9
20:40 1012 29.88 841 24.83 4.6 40.3 45 -6.3 20.7
20:45 1012 29.88 841 24.83 3.9 39.1 45 -7 19.4
20:50 1012 29.88 841 24.83 4.5 40.1 42 -7.4 18.7
20:55 1012 29.88 841 24.83 5 41 41 -7.1 19.3
21:00 1012 29.88 841 24.83 5.1 41.2 39 -7.6 18.3
21:05 1012 29.88 841 24.83 5.2 41.3 41 -7.2 19.1
21:10 1012 29.88 841 24.83 5.1 41.2 42 -6.7 19.9
21:15 1012 29.88 841 24.83 5 41.1 39 -7.7 18.1
21:20 1012 29.88 841 24.83 5.1 41.2 39 -7.6 18.4
21:25 1012 29.88 841 24.83 5.2 41.4 38 -8.1 17.3
21:30 1012 29.88 841 24.83 5.1 41.2 39 -7.7 18.1
21:35 1012 29.88 841 24.83 5.2 41.4 38 -7.8 17.9
21:40 1012 29.88 841 24.83 5.1 41.2 40 -7.3 18.9
21:45 1012 29.88 841 24.83 4.9 40.7 39 -8 17.7
21:50 1012 29.88 841 24.83 5.2 41.4 38 -7.8 18
21:55 1012 29.88 841 24.83 5.2 41.4 36 -8.8 16.2
22:00 1012 29.88 841 24.83 5.3 41.5 40 -7.3 18.9
22:05 1011 29.85 841 24.83 5.1 41.2 39 -7.8 18
22:10 1011 29.85 841 24.83 5.3 41.5 38 -7.8 18
22:15 1011 29.85 840 24.81 5.4 41.8 36 -8.4 16.8
22:20 1011 29.85 841 24.83 5.4 41.6 38 -7.9 17.8
22:25 1011 29.85 840 24.81 5.3 41.6 39 -7.5 18.5
22:30 1011 29.85 840 24.81 5.4 41.7 37 -8.2 17.2
22:35 1011 29.85 840 24.81 5.4 41.7 36 -8.6 16.6
22:40 1011 29.85 840 24.81 5.2 41.4 36 -8.8 16.1
22:45 1011 29.85 840 24.81 5 41 38 -8.3 17
22:50 1011 29.85 840 24.81 5.2 41.3 35 -9.2 15.4
22:55 1011 29.85 840 24.81 5.5 41.9 36 -8.4 16.8
23:00 1011 29.85 840 24.81 5 41 38 -8.1 17.4
23:05 1011 29.85 840 24.81 4.7 40.5 36 -9.3 15.3
23:10 1011 29.85 840 24.81 4.6 40.3 37 -8.7 16.3
23:15 1011 29.85 840 24.81 4.6 40.2 38 -8.5 16.7
23:20 1011 29.85 840 24.81 4.4 40 38 -8.8 16.2
23:25 1011 29.85 840 24.81 4.2 39.5 39 -8.8 16.2
23:30 1011 29.85 840 24.81 3.9 39.1 38 -9.3 15.3
23:35 1010 29.83 840 24.81 3.9 39 37 -9.5 14.9
23:40 1010 29.83 840 24.81 3.8 38.9 40 -8.6 16.6
23:45 1010 29.83 840 24.81 3.3 38 45 -7.4 18.7
23:50 1010 29.83 840 24.81 2.8 37 45 -7.9 17.7
23:55 1010 29.83 840 24.81 2.6 36.8 46 -8 17.7
24:00 1010 29.83 840 24.81 2.5 36.4 47 -7.8 18